Time;durP1;ratioP1;P1;durP2;ratioP2;P2;SDS_P1;SDS_P2;PMS_P1;PMS_P2;Temp;Humidity;BMP_temperature;BMP_pressure;BME280_temperature;BME280_humidity;BME280_pressure;Samples;Min_cycle;Max_cycle;Signal;HPM_P1;HPM_P2
2022/05/17 00:00:28;;;;;;;2.10;1.75;;;;;;;18.60;63.11;99909.16;5107045;28;20047;-87
2022/05/17 00:02:53;;;;;;;2.92;1.80;;;;;;;18.40;63.28;99892.19;5106387;28;20031;-87
2022/05/17 00:05:19;;;;;;;4.38;3.00;;;;;;;18.25;63.87;99882.19;5107485;28;20035;-87
2022/05/17 00:07:44;;;;;;;2.25;1.88;;;;;;;18.23;63.86;99889.41;5105691;28;20054;-87
2022/05/17 00:10:11;;;;;;;2.78;2.08;;;;;;;18.14;63.68;99885.31;5106109;28;20042;-87
2022/05/17 00:12:37;;;;;;;1.92;1.23;;;;;;;18.10;64.23;99882.84;5105576;28;20430;-87
2022/05/17 00:15:05;;;;;;;1.77;1.23;;;;;;;17.99;63.94;99860.16;5106004;28;20039;-86
2022/05/17 00:17:30;;;;;;;3.88;2.17;;;;;;;17.97;64.45;99847.84;5106888;28;20051;-87
2022/05/17 00:19:56;;;;;;;2.10;1.33;;;;;;;18.00;64.13;99840.56;5106156;28;20816;-86
2022/05/17 00:22:21;;;;;;;2.85;2.00;;;;;;;18.21;64.35;99886.81;5107311;28;20032;-86
2022/05/17 00:24:47;;;;;;;1.70;1.10;;;;;;;17.81;64.96;99845.78;5105228;28;21196;-87
2022/05/17 00:27:12;;;;;;;2.17;1.73;;;;;;;17.77;65.59;99849.50;5107264;28;20028;-86
2022/05/17 00:29:38;;;;;;;2.33;1.63;;;;;;;17.84;65.66;99885.69;5107005;28;20119;-85
2022/05/17 00:32:04;;;;;;;2.47;2.05;;;;;;;17.63;65.58;99852.75;5106534;28;20036;-86
2022/05/17 00:34:29;;;;;;;2.55;2.17;;;;;;;17.63;65.74;99867.91;5105870;28;20020;-86
2022/05/17 00:36:56;;;;;;;1.90;1.45;;;;;;;17.51;66.71;99891.44;5106567;28;20034;-86
2022/05/17 00:39:21;;;;;;;4.57;2.40;;;;;;;17.47;67.20;99886.31;5107188;28;20035;-86
2022/05/17 00:41:47;;;;;;;1.92;1.70;;;;;;;17.16;68.69;99890.19;5110110;28;20106;-86
2022/05/17 00:47:27;;;;;;;5.13;2.42;;;;;;;17.06;69.36;99888.81;5109921;28;20868;-87
2022/05/17 00:50:05;;;;;;;4.22;2.00;;;;;;;16.89;70.60;99903.66;5109288;28;20055;-87
2022/05/17 00:52:51;;;;;;;5.45;2.75;;;;;;;16.65;71.52;99882.31;5109458;28;20459;-87
2022/05/17 00:55:25;;;;;;;2.67;2.30;;;;;;;16.73;70.84;99858.06;5109950;28;20063;-87
2022/05/17 00:58:00;;;;;;;3.20;2.00;;;;;;;16.81;71.00;99874.59;5109060;28;20089;-86
2022/05/17 01:00:30;;;;;;;4.53;3.33;;;;;;;16.59;70.83;99847.91;5109299;28;20484;-87
2022/05/17 01:03:04;;;;;;;2.42;1.67;;;;;;;16.67;71.47;99846.75;5108572;28;20135;-86
2022/05/17 01:05:34;;;;;;;4.72;2.67;;;;;;;16.91;71.05;99882.28;5110398;28;20088;-87
2022/05/17 01:08:01;;;;;;;5.07;2.45;;;;;;;17.18;70.49;99912.34;5108713;28;20028;-86
2022/05/17 01:10:29;;;;;;;4.95;2.92;;;;;;;17.04;69.92;99853.34;5110017;28;20039;-86
2022/05/17 01:15:40;;;;;;;4.20;3.15;;;;;;;17.10;69.62;99861.13;5110859;28;20176;-87
2022/05/17 01:18:06;;;;;;;3.38;2.60;;;;;;;17.23;69.14;99853.53;5110322;28;20102;-88
2022/05/17 01:20:35;;;;;;;4.57;3.03;;;;;;;17.44;68.71;99884.66;5109339;28;20024;-87
2022/05/17 01:23:00;;;;;;;3.55;3.17;;;;;;;17.16;68.95;99843.09;5110408;28;20118;-87
2022/05/17 01:25:27;;;;;;;4.00;2.60;;;;;;;17.10;68.63;99832.69;5107485;28;20126;-87
2022/05/17 01:28:00;;;;;;;5.38;2.92;;;;;;;17.23;68.54;99867.69;5108489;28;20482;-87
2022/05/17 01:30:28;;;;;;;4.65;3.40;;;;;;;16.67;68.58;99823.66;5108027;28;20775;-87
2022/05/17 01:32:53;;;;;;;11.20;2.80;;;;;;;17.00;67.80;99863.28;5108277;28;20207;-87
2022/05/17 01:35:19;;;;;;;5.30;4.07;;;;;;;16.64;68.97;99840.63;5109425;28;20884;-87
2022/05/17 01:37:50;;;;;;;7.53;2.47;;;;;;;16.61;68.89;99862.03;5108164;28;20032;-87
2022/05/17 01:40:15;;;;;;;3.80;2.65;;;;;;;16.50;69.24;99847.38;5109783;28;20063;-87
2022/05/17 01:42:41;;;;;;;3.42;2.50;;;;;;;16.34;69.90;99825.78;5109164;28;20121;-87
2022/05/17 01:45:07;;;;;;;7.28;3.30;;;;;;;16.16;70.12;99830.84;5108916;28;20047;-87
2022/05/17 01:47:32;;;;;;;7.88;5.25;;;;;;;16.69;69.79;99884.88;5108760;28;20047;-88
2022/05/17 01:49:58;;;;;;;4.15;2.97;;;;;;;16.60;69.92;99870.94;5108806;28;20028;-88
2022/05/17 01:52:23;;;;;;;4.32;3.10;;;;;;;16.82;69.30;99887.00;5109432;28;20035;-87
2022/05/17 01:54:49;;;;;;;4.30;3.33;;;;;;;16.61;69.54;99863.84;5106880;28;20568;-86
2022/05/17 01:57:14;;;;;;;3.25;2.30;;;;;;;16.50;69.58;99832.28;5109415;28;20036;-86
2022/05/17 01:59:40;;;;;;;5.40;2.65;;;;;;;16.67;69.47;99866.28;5109172;28;20123;-86
2022/05/17 02:02:06;;;;;;;4.60;2.35;;;;;;;16.60;69.10;99841.66;5108763;28;20169;-87
2022/05/17 02:04:32;;;;;;;3.53;2.65;;;;;;;16.63;69.00;99838.00;5109185;28;20838;-87
2022/05/17 02:06:57;;;;;;;4.75;2.80;;;;;;;16.78;68.47;99852.56;5107677;28;20546;-86
2022/05/17 02:09:23;;;;;;;3.85;2.30;;;;;;;16.40;69.19;99814.91;5109533;28;20103;-87
2022/05/17 02:11:48;;;;;;;4.15;3.42;;;;;;;16.52;68.77;99816.25;5108914;27;20040;-87
2022/05/17 02:14:14;;;;;;;5.10;2.60;;;;;;;16.71;69.06;99829.72;5106346;28;20032;-86
2022/05/17 02:16:39;;;;;;;;;;;;;;;16.87;69.27;99859.34;5109088;28;20587;-87
2022/05/17 02:19:08;;;;;;;4.18;3.47;;;;;;;16.93;69.48;99867.09;5108016;28;19919;-87
2022/05/17 02:21:35;;;;;;;8.45;3.25;;;;;;;17.06;68.66;99864.84;5106910;28;20049;-87
2022/05/17 02:24:02;;;;;;;6.85;3.33;;;;;;;16.99;68.59;99862.41;5108457;28;20039;-87
2022/05/17 02:26:28;;;;;;;4.15;2.38;;;;;;;17.03;68.12;99857.81;5108809;27;20032;-86
2022/05/17 02:28:53;;;;;;;7.65;3.50;;;;;;;16.52;69.00;99821.56;5108705;27;20104;-86
2022/05/17 02:31:19;;;;;;;6.95;3.55;;;;;;;16.78;68.98;99847.22;5108594;28;20540;-87
2022/05/17 02:33:46;;;;;;;3.47;2.30;;;;;;;16.75;68.95;99839.34;5107227;28;20127;-87
2022/05/17 02:36:11;;;;;;;5.18;3.75;;;;;;;16.64;67.82;99840.63;5108027;28;20082;-86
2022/05/17 02:38:37;;;;;;;11.45;4.13;;;;;;;16.58;67.56;99834.66;5107624;28;20059;-86
2022/05/17 02:41:02;;;;;;;4.60;3.80;;;;;;;16.68;67.91;99861.81;5108238;28;20050;-87
2022/05/17 02:43:28;;;;;;;5.65;3.53;;;;;;;16.70;68.04;99866.16;5099348;28;20720;-87
2022/05/17 02:45:53;;;;;;;3.47;2.72;;;;;;;16.53;67.59;99828.63;5106230;28;20044;-87
2022/05/17 02:48:19;;;;;;;;;;;;;;;16.73;67.42;99866.03;5111574;28;20024;-87
2022/05/17 02:50:44;;;;;;;3.35;2.58;;;;;;;16.64;67.30;99858.41;5107181;28;20404;-89
2022/05/17 02:53:10;;;;;;;5.03;3.25;;;;;;;16.67;67.83;99860.94;5108517;28;20508;-89
2022/05/17 02:55:35;;;;;;;4.22;3.25;;;;;;;16.64;68.06;99863.72;5107962;28;20031;-89
2022/05/17 02:58:01;;;;;;;6.75;5.25;;;;;;;16.58;68.00;99863.97;5107363;28;20482;-91
2022/05/17 03:00:26;;;;;;;3.70;2.13;;;;;;;16.28;68.19;99832.19;5106573;28;20036;-89
2022/05/17 03:02:52;;;;;;;3.45;2.53;;;;;;;16.31;67.08;99828.56;5098681;28;20036;-91
2022/05/17 03:05:19;;;;;;;3.45;2.83;;;;;;;16.30;67.35;99870.28;5106383;28;20563;-86
2022/05/17 03:07:45;;;;;;;4.85;2.72;;;;;;;15.94;67.91;99865.31;5107371;28;20116;-86
2022/05/17 03:10:12;;;;;;;3.03;2.22;;;;;;;16.03;68.07;99902.25;5107828;28;20035;-86
2022/05/17 03:12:38;;;;;;;3.40;1.98;;;;;;;15.78;68.38;99874.75;5108190;28;20036;-85
2022/05/17 03:15:05;;;;;;;5.00;3.80;;;;;;;15.77;68.40;99857.94;5107571;28;20180;-85
2022/05/17 03:17:31;;;;;;;4.72;2.63;;;;;;;16.00;68.03;99881.06;5107469;28;20027;-87
2022/05/17 03:19:57;;;;;;;9.80;3.70;;;;;;;16.28;67.42;99893.41;5106671;28;20060;-86
2022/05/17 03:22:23;;;;;;;;;;;;;;;16.08;68.07;99902.09;5107906;28;20081;-85
2022/05/17 03:24:48;;;;;;;5.10;3.63;;;;;;;15.99;67.86;99876.69;5107423;28;20307;-86
2022/05/17 03:27:17;;;;;;;1.92;1.75;;;;;;;16.21;68.13;99875.94;5107894;28;20038;-87
2022/05/17 03:29:43;;;;;;;6.55;2.55;;;;;;;16.13;67.93;99857.56;5107435;28;20023;-84
2022/05/17 03:32:09;;;;;;;4.15;2.42;;;;;;;16.27;68.34;99889.03;5107638;28;20020;-86
2022/05/17 03:34:35;;;;;;;5.35;3.33;;;;;;;16.40;68.72;99900.97;5107203;28;20053;-85
2022/05/17 03:37:00;;;;;;;3.17;2.45;;;;;;;16.37;68.03;99884.22;5107818;28;20505;-87
2022/05/17 03:39:26;;;;;;;;;;;;;;;16.58;68.48;99904.75;5106039;28;20152;-85
2022/05/17 03:41:51;;;;;;;6.03;2.85;;;;;;;16.60;67.96;99894.06;5106030;28;19923;-88
2022/05/17 03:44:17;;;;;;;4.32;2.85;;;;;;;16.60;68.26;99889.59;5107778;28;20047;-88
2022/05/17 03:46:43;;;;;;;;;;;;;;;16.80;68.40;99903.97;5107351;28;20031;-84
2022/05/17 03:49:08;;;;;;;10.13;3.42;;;;;;;16.88;68.73;99898.38;5102541;28;19927;-87
2022/05/17 03:51:34;;;;;;;7.63;6.22;;;;;;;16.79;67.87;99870.25;5107506;28;20035;-87
2022/05/17 03:54:00;;;;;;;3.65;2.33;;;;;;;17.03;68.16;99871.16;5106982;28;20031;-86
2022/05/17 03:56:25;;;;;;;5.07;2.55;;;;;;;17.35;67.45;99906.34;5106989;28;20477;-89
2022/05/17 03:58:51;;;;;;;4.07;2.75;;;;;;;16.90;67.65;99857.44;5104966;28;20031;-90
2022/05/17 04:01:16;;;;;;;5.43;3.22;;;;;;;16.79;67.34;99855.16;5103418;28;20032;-86
2022/05/17 04:03:43;;;;;;;3.47;1.90;;;;;;;17.15;67.66;99894.66;5103425;28;20032;-85
2022/05/17 04:06:08;;;;;;;4.68;3.17;;;;;;;17.26;66.90;99891.56;5103418;28;20044;-86
2022/05/17 04:08:36;;;;;;;6.30;4.03;;;;;;;17.36;67.01;99890.28;5089612;28;20512;-87
2022/05/17 04:11:03;;;;;;;6.22;2.90;;;;;;;17.55;66.33;99865.53;5090690;28;20685;-88
2022/05/17 04:13:29;;;;;;;3.75;3.00;;;;;;;17.80;65.89;99896.53;5105938;28;20044;-87
2022/05/17 04:15:57;;;;;;;4.05;2.40;;;;;;;17.68;66.16;99860.56;5109210;28;20110;-87
2022/05/17 04:18:22;;;;;;;4.93;3.45;;;;;;;18.12;65.61;99897.88;5110268;27;20043;-86
2022/05/17 04:20:47;;;;;;;5.40;3.65;;;;;;;18.22;64.85;99885.84;5110311;28;20039;-86
2022/05/17 04:23:13;;;;;;;4.75;3.30;;;;;;;18.53;64.91;99919.22;5111751;28;20038;-86
2022/05/17 04:25:38;;;;;;;4.35;3.33;;;;;;;18.41;64.70;99875.25;5111426;28;20043;-86
2022/05/17 04:28:04;;;;;;;5.45;2.97;;;;;;;18.75;64.30;99887.09;5111084;28;20082;-86
2022/05/17 04:30:30;;;;;;;4.38;3.13;;;;;;;18.92;63.34;99880.09;5109105;28;20032;-86
2022/05/17 04:32:56;;;;;;;4.95;3.42;;;;;;;19.23;62.72;99897.38;5102636;28;20035;-87
2022/05/17 04:35:22;;;;;;;4.15;3.42;;;;;;;19.39;62.00;99887.69;5110928;28;20039;-87
2022/05/17 04:37:47;;;;;;;4.78;3.17;;;;;;;19.47;61.06;99882.81;5109723;28;20042;-86
2022/05/17 04:40:14;;;;;;;5.82;2.97;;;;;;;19.73;60.88;99907.44;5110569;28;20059;-85
2022/05/17 04:42:41;;;;;;;4.28;3.33;;;;;;;19.71;60.87;99870.97;5108703;28;20031;-86
2022/05/17 04:45:10;;;;;;;6.70;2.38;;;;;;;19.81;60.87;99874.97;5110932;28;20047;-86
2022/05/17 04:47:38;;;;;;;4.72;2.80;;;;;;;19.85;61.73;99893.47;5110457;28;20031;-85
2022/05/17 04:50:04;;;;;;;4.80;3.25;;;;;;;19.79;62.13;99879.53;5110286;28;20035;-85
2022/05/17 04:52:30;;;;;;;4.30;3.05;;;;;;;20.08;61.97;99875.38;5110310;28;20031;-86
2022/05/17 04:54:55;;;;;;;8.50;3.75;;;;;;;19.99;61.96;99849.09;5109895;28;20619;-85
2022/05/17 04:57:21;;;;;;;4.90;3.38;;;;;;;20.18;61.69;99871.25;5107740;28;20114;-85
2022/05/17 04:59:46;;;;;;;6.47;4.10;;;;;;;20.46;60.46;99874.31;5110204;28;20034;-87
2022/05/17 05:02:12;;;;;;;5.72;3.78;;;;;;;20.59;58.97;99899.53;5110709;28;20027;-85
2022/05/17 05:04:38;;;;;;;5.18;3.33;;;;;;;20.83;58.33;99912.56;5109860;28;20067;-88
2022/05/17 05:07:05;;;;;;;6.47;4.35;;;;;;;20.51;58.23;99874.94;5110256;28;20031;-87
2022/05/17 05:09:31;;;;;;;6.75;4.40;;;;;;;20.53;57.54;99856.97;5092453;28;20031;-85
2022/05/17 05:11:57;;;;;;;5.78;4.20;;;;;;;20.76;55.27;99885.25;5105406;28;20039;-83
2022/05/17 05:14:23;;;;;;;4.30;3.25;;;;;;;20.47;56.39;99893.00;5110207;28;20027;-84
2022/05/17 05:16:48;;;;;;;5.78;3.63;;;;;;;20.65;55.00;99896.53;5109851;28;20042;-83
2022/05/17 05:19:14;;;;;;;4.68;3.60;;;;;;;20.31;56.38;99862.59;5110297;28;20027;-84
2022/05/17 05:21:40;;;;;;;5.05;3.70;;;;;;;20.74;54.27;99879.09;5110276;28;20043;-84
2022/05/17 05:24:07;;;;;;;5.68;3.65;;;;;;;21.03;55.01;99872.13;5110508;28;20043;-84
2022/05/17 05:26:33;;;;;;;4.55;2.65;;;;;;;21.24;53.97;99906.72;5108698;28;20053;-84
2022/05/17 05:28:59;;;;;;;3.17;2.67;;;;;;;21.00;55.03;99874.13;5109610;28;20142;-83
2022/05/17 05:31:25;;;;;;;5.93;2.92;;;;;;;21.36;54.32;99865.78;5109278;28;20711;-84
2022/05/17 05:33:50;;;;;;;4.80;2.80;;;;;;;21.74;53.39;99897.66;5109289;28;20038;-83
2022/05/17 05:36:16;;;;;;;4.22;2.95;;;;;;;21.23;54.32;99884.41;5109451;28;20043;-83
2022/05/17 05:38:42;;;;;;;7.53;4.32;;;;;;;21.99;52.90;99898.91;5110194;28;20111;-83
2022/05/17 05:41:12;;;;;;;3.55;2.38;;;;;;;21.71;50.91;99891.59;5106243;28;20493;-84
2022/05/17 05:43:38;;;;;;;5.53;2.75;;;;;;;21.79;52.15;99878.59;5108935;28;20409;-83
2022/05/17 05:46:04;;;;;;;3.70;2.20;;;;;;;21.95;52.69;99875.84;5109877;28;20044;-84
2022/05/17 05:48:29;;;;;;;4.75;2.63;;;;;;;22.30;50.81;99860.34;5098534;27;20032;-84
2022/05/17 05:50:55;;;;;;;2.78;2.08;;;;;;;23.11;50.37;99928.88;5103701;28;20034;-84
2022/05/17 05:53:21;;;;;;;3.92;2.50;;;;;;;22.87;50.17;99891.75;5109815;28;20035;-84
2022/05/17 05:56:01;;;;;;;4.93;2.83;;;;;;;23.52;48.29;99884.94;5109229;28;20405;-85
2022/05/17 05:58:31;;;;;;;4.03;2.25;;;;;;;23.74;47.47;99905.94;5109503;28;20028;-84
2022/05/17 06:00:58;;;;;;;3.75;2.45;;;;;;;23.13;47.82;99874.97;5109610;28;20115;-85
2022/05/17 06:03:24;;;;;;;4.28;3.35;;;;;;;22.85;48.09;99830.97;5107231;28;20042;-84
2022/05/17 06:05:50;;;;;;;3.47;2.72;;;;;;;23.38;49.16;99875.09;5108823;28;20042;-85
2022/05/17 06:08:16;;;;;;;3.03;2.20;;;;;;;23.28;48.53;99881.16;5105110;28;20036;-84
2022/05/17 06:10:43;;;;;;;3.85;2.13;;;;;;;23.60;46.21;99895.22;5106864;28;20031;-85
2022/05/17 06:13:14;;;;;;;3.50;2.50;;;;;;;23.39;48.08;99876.81;5107848;28;20556;-85
2022/05/17 06:15:40;;;;;;;4.65;3.80;;;;;;;24.37;46.16;99900.81;5105039;28;20448;-85
2022/05/17 06:18:07;;;;;;;3.70;2.15;;;;;;;24.53;44.06;99887.16;5108333;28;20039;-85
2022/05/17 06:20:33;;;;;;;5.47;2.83;;;;;;;24.92;45.05;99884.47;5109011;28;20031;-84
2022/05/17 06:22:59;;;;;;;3.47;2.15;;;;;;;25.03;43.65;99879.16;5108943;28;20032;-84
2022/05/17 06:25:25;;;;;;;3.33;2.10;;;;;;;24.69;43.27;99849.22;5091350;28;20474;-85
2022/05/17 06:27:51;;;;;;;6.93;2.95;;;;;;;24.44;44.25;99858.16;5089736;28;20073;-84
2022/05/17 06:30:16;;;;;;;4.07;2.90;;;;;;;24.63;44.73;99844.25;5108257;28;20028;-84
2022/05/17 06:32:42;;;;;;;3.17;2.03;;;;;;;25.09;44.15;99883.25;5108465;28;20031;-84
2022/05/17 06:35:09;;;;;;;3.63;2.17;;;;;;;25.25;44.10;99866.78;5108121;28;20153;-84
2022/05/17 06:37:34;;;;;;;3.55;2.30;;;;;;;25.57;40.83;99829.31;5088458;28;20513;-84
2022/05/17 06:40:00;;;;;;;4.75;2.45;;;;;;;25.96;41.73;99884.00;5088624;28;20036;-84
2022/05/17 06:42:27;;;;;;;5.38;2.03;;;;;;;26.20;42.25;99875.88;5088970;28;20032;-84
2022/05/17 06:44:54;;;;;;;4.72;2.80;;;;;;;26.01;39.85;99851.25;5087549;28;20144;-84
2022/05/17 06:47:19;;;;;;;5.00;2.25;;;;;;;25.81;39.51;99836.53;5087029;28;20423;-84
2022/05/17 06:49:45;;;;;;;3.08;1.95;;;;;;;26.52;39.15;99871.63;5087989;28;20061;-85
2022/05/17 06:52:11;;;;;;;4.15;2.15;;;;;;;26.68;39.50;99857.78;5088308;28;20131;-82
2022/05/17 06:54:36;;;;;;;2.70;1.90;;;;;;;27.10;38.30;99860.72;5088649;28;20418;-83
2022/05/17 06:57:06;;;;;;;5.32;3.10;;;;;;;26.78;38.52;99835.25;5087965;28;20735;-81
2022/05/17 06:59:34;;;;;;;2.42;1.80;;;;;;;26.72;39.56;99843.88;5088106;28;20086;-84
2022/05/17 07:02:00;;;;;;;2.85;1.70;;;;;;;26.94;38.36;99842.16;5088218;28;20036;-83
2022/05/17 07:04:29;;;;;;;3.58;2.28;;;;;;;27.06;37.10;99841.16;5087554;28;20093;-83
2022/05/17 07:06:58;;;;;;;5.75;1.98;;;;;;;27.54;39.20;99861.63;5086349;28;20429;-83
2022/05/17 07:09:26;;;;;;;3.40;1.90;;;;;;;27.93;35.85;99853.84;5087615;28;20055;-83
2022/05/17 07:14:37;;;;;;;6.78;3.03;;;;;;;27.77;39.60;99832.59;5087748;28;20042;-82
2022/05/17 07:17:15;;;;;;;4.00;2.53;;;;;;;27.41;36.43;99814.91;5087668;28;20073;-83
2022/05/17 07:19:42;;;;;;;2.60;1.52;;;;;;;27.67;36.14;99842.50;5085933;28;20040;-83
2022/05/17 07:22:08;;;;;;;3.33;2.30;;;;;;;27.85;36.22;99840.94;5087865;28;20028;-83
2022/05/17 07:24:34;;;;;;;3.55;2.03;;;;;;;27.92;35.50;99832.28;5086515;28;20028;-83
2022/05/17 07:27:01;;;;;;;3.35;2.30;;;;;;;28.53;34.69;99840.56;5087222;28;20036;-85
2022/05/17 07:29:27;;;;;;;3.70;2.30;;;;;;;28.83;35.59;99835.28;5105499;28;20122;-84
2022/05/17 07:31:53;;;;;;;6.70;2.53;;;;;;;29.00;35.33;99826.47;5107244;28;20111;-85
2022/05/17 07:34:18;;;;;;;3.05;2.00;;;;;;;28.75;33.37;99792.56;5107144;28;20031;-86
2022/05/17 07:36:44;;;;;;;2.95;1.83;;;;;;;28.62;34.14;99822.63;5108028;28;20023;-85
2022/05/17 07:39:10;;;;;;;3.28;2.15;;;;;;;28.42;34.19;99799.09;5107712;28;20479;-83
2022/05/17 07:41:36;;;;;;;3.13;2.08;;;;;;;28.88;36.08;99822.16;5106563;28;20036;-84
2022/05/17 07:44:03;;;;;;;3.08;1.83;;;;;;;28.63;36.72;99799.94;5107294;28;20100;-83
2022/05/17 07:46:29;;;;;;;4.05;1.95;;;;;;;28.96;34.89;99814.16;5107426;28;20478;-84
2022/05/17 07:48:54;;;;;;;3.42;1.77;;;;;;;29.28;36.60;99843.00;5106453;28;20138;-85
2022/05/17 07:51:20;;;;;;;2.63;1.83;;;;;;;29.51;32.24;99805.59;5107470;28;20568;-85
2022/05/17 07:53:46;;;;;;;2.75;1.65;;;;;;;29.36;33.17;99840.44;5107816;28;20035;-85
2022/05/17 07:56:13;;;;;;;2.60;1.83;;;;;;;30.27;32.32;99823.84;5107493;28;20037;-86
2022/05/17 07:58:38;;;;;;;3.30;1.88;;;;;;;30.02;32.95;99798.13;5107618;28;20032;-84
2022/05/17 08:01:04;;;;;;;2.83;1.90;;;;;;;30.16;33.26;99791.38;5106790;28;20100;-84
2022/05/17 08:03:30;;;;;;;2.78;2.05;;;;;;;30.25;34.97;99809.53;5107079;28;20027;-84
2022/05/17 08:05:56;;;;;;;3.38;2.17;;;;;;;30.48;32.86;99752.94;5107073;28;20429;-85
2022/05/17 08:08:21;;;;;;;3.13;2.28;;;;;;;30.67;32.73;99802.84;5106920;28;20028;-85
2022/05/17 08:10:47;;;;;;;4.20;2.38;;;;;;;30.80;32.54;99769.81;5106306;28;20032;-85
2022/05/17 08:13:16;;;;;;;3.30;2.50;;;;;;;30.52;32.50;99805.19;5105808;28;20480;-85
2022/05/17 08:15:43;;;;;;;8.35;3.40;;;;;;;30.42;31.48;99758.13;5107000;28;20027;-85
2022/05/17 08:18:10;;;;;;;4.43;3.50;;;;;;;31.09;32.85;99776.97;5107156;28;20042;-85
2022/05/17 08:20:36;;;;;;;3.53;2.58;;;;;;;31.73;30.95;99799.59;5107053;28;20028;-85
2022/05/17 08:23:03;;;;;;;3.58;2.90;;;;;;;30.96;31.50;99799.97;5107221;28;20073;-85
2022/05/17 08:28:13;;;;;;;3.33;2.45;;;;;;;31.66;31.59;99783.00;5106877;28;20918;-85
2022/05/17 08:30:39;;;;;;;4.82;3.13;;;;;;;31.02;31.53;99780.31;5107356;28;20032;-85
2022/05/17 08:33:17;;;;;;;4.63;3.22;;;;;;;31.45;32.13;99766.09;5106510;28;20519;-85
2022/05/17 08:35:50;;;;;;;5.82;2.28;;;;;;;32.06;30.70;99761.69;5107153;28;20059;-86
2022/05/17 08:38:40;;;;;;;5.20;2.92;;;;;;;31.98;31.59;99773.38;5105455;28;20072;-86
2022/05/17 08:41:18;;;;;;;3.13;2.50;;;;;;;31.74;31.07;99774.03;5106397;28;20031;-86
2022/05/17 08:43:51;;;;;;;4.78;2.50;;;;;;;31.41;31.44;99760.09;5105465;28;20057;-85
2022/05/17 08:46:30;;;;;;;3.75;2.58;;;;;;;31.90;31.20;99755.09;5106266;28;20077;-86
2022/05/17 08:49:09;;;;;;;3.38;2.33;;;;;;;32.17;31.63;99772.34;5105680;28;20113;-86
2022/05/17 08:51:42;;;;;;;3.90;2.53;;;;;;;31.83;29.81;99728.63;5104723;28;20118;-86
2022/05/17 08:54:12;;;;;;;2.38;1.85;;;;;;;31.33;30.02;99740.97;5105827;28;20088;-85
2022/05/17 08:56:53;;;;;;;4.60;3.13;;;;;;;31.71;29.72;99720.69;5106321;28;20032;-84
2022/05/17 08:59:22;;;;;;;3.38;2.15;;;;;;;32.46;30.20;99758.34;5106323;28;20505;-85
2022/05/17 09:02:14;;;;;;;4.40;2.60;;;;;;;32.11;32.46;99762.06;5109039;28;20032;-84
2022/05/17 09:04:45;;;;;;;5.25;2.92;;;;;;;32.80;30.98;99754.75;5109848;28;20039;-84
2022/05/17 09:07:19;;;;;;;4.15;2.88;;;;;;;32.77;30.37;99748.78;5109970;28;20034;-85
2022/05/17 09:09:56;;;;;;;3.92;2.55;;;;;;;32.71;30.47;99757.63;5110725;28;20779;-85
2022/05/17 09:12:29;;;;;;;3.53;2.53;;;;;;;32.63;30.27;99710.13;5109509;28;20046;-84
2022/05/17 09:14:59;;;;;;;5.22;3.38;;;;;;;32.77;31.55;99707.81;5109705;28;20034;-84
2022/05/17 09:17:26;;;;;;;5.90;3.03;;;;;;;32.66;32.44;99708.97;5110271;28;20034;-84
2022/05/17 09:19:52;;;;;;;4.32;2.90;;;;;;;32.12;31.05;99729.16;5108965;28;20417;-84
2022/05/17 09:22:20;;;;;;;4.70;4.05;;;;;;;32.06;31.21;99742.56;5110127;28;20031;-85
2022/05/17 09:24:59;;;;;;;4.13;2.95;;;;;;;31.71;30.95;99731.59;5109048;27;20034;-86
2022/05/17 09:27:30;;;;;;;4.53;3.00;;;;;;;31.48;31.29;99703.97;5108967;28;20078;-84
2022/05/17 09:30:11;;;;;;;3.50;2.55;;;;;;;31.42;32.38;99743.59;5110158;28;20053;-85
2022/05/17 09:32:42;;;;;;;3.83;2.78;;;;;;;31.30;33.57;99712.16;5109165;28;20024;-84
2022/05/17 09:35:15;;;;;;;6.25;3.15;;;;;;;31.74;30.49;99735.88;5109907;28;20039;-84
2022/05/17 09:37:44;;;;;;;3.97;3.05;;;;;;;32.17;32.42;99725.13;5109330;28;20027;-84
2022/05/17 09:40:13;;;;;;;4.88;3.72;;;;;;;32.39;30.08;99701.84;5109744;28;20032;-84
2022/05/17 09:43:01;;;;;;;3.88;2.85;;;;;;;31.45;31.45;99706.13;5108643;28;20039;-84
2022/05/17 09:45:46;;;;;;;3.42;2.50;;;;;;;31.38;32.57;99705.91;5109670;28;20086;-86
2022/05/17 09:48:17;;;;;;;2.60;2.15;;;;;;;32.26;30.87;99705.88;5109161;28;20027;-85
2022/05/17 09:53:58;;;;;;;4.05;2.10;;;;;;;32.64;29.77;99703.69;5108722;28;20092;-86
2022/05/17 09:56:26;;;;;;;4.55;2.53;;;;;;;32.48;30.18;99696.25;5106110;28;20120;-85
2022/05/17 09:58:52;;;;;;;3.55;2.20;;;;;;;32.31;29.97;99703.50;5108767;28;20032;-84
2022/05/17 10:01:26;;;;;;;4.65;3.03;;;;;;;32.38;29.49;99691.94;5109080;28;20058;-85
2022/05/17 10:04:19;;;;;;;4.03;2.80;;;;;;;32.26;30.93;99696.84;5089392;28;20034;-84
2022/05/17 10:06:47;;;;;;;4.03;2.40;;;;;;;32.33;28.26;99667.03;5086148;28;20145;-83
2022/05/17 10:09:28;;;;;;;3.08;2.13;;;;;;;32.82;26.45;99691.78;5088984;28;20039;-83
2022/05/17 10:12:08;;;;;;;2.28;1.95;;;;;;;32.60;26.26;99674.97;5087862;28;20486;-86
2022/05/17 10:14:52;;;;;;;2.72;1.80;;;;;;;32.60;27.77;99653.13;5088687;28;20040;-85
2022/05/17 10:17:36;;;;;;;3.17;1.88;;;;;;;32.80;28.29;99672.00;5087532;28;20515;-84
2022/05/17 10:20:11;;;;;;;5.22;2.22;;;;;;;32.38;28.29;99670.09;5093068;28;20039;-85
2022/05/17 10:22:42;;;;;;;3.30;2.20;;;;;;;32.27;27.78;99679.44;5089148;28;20090;-84
2022/05/17 10:25:26;;;;;;;2.85;1.90;;;;;;;32.37;26.96;99677.44;5087131;28;20036;-84
2022/05/17 10:27:57;;;;;;;2.17;1.55;;;;;;;32.44;24.53;99653.06;5088848;28;20055;-84
2022/05/17 10:30:32;;;;;;;2.20;1.75;;;;;;;32.83;24.17;99668.91;5088550;28;20035;-85
2022/05/17 10:33:03;;;;;;;1.45;1.00;;;;;;;32.53;23.00;99643.03;5088315;28;20085;-86
2022/05/17 10:35:35;;;;;;;2.95;1.52;;;;;;;32.06;22.77;99658.03;5088787;28;20032;-84
2022/05/17 10:38:20;;;;;;;2.38;1.42;;;;;;;31.95;24.17;99627.28;5088399;28;20032;-85
2022/05/17 10:40:49;;;;;;;2.13;1.30;;;;;;;31.98;23.62;99615.19;5088032;28;20028;-85
2022/05/17 10:43:22;;;;;;;1.48;1.23;;;;;;;32.18;24.75;99642.22;5086220;28;20139;-85
2022/05/17 10:46:00;;;;;;;1.30;1.13;;;;;;;31.56;25.07;99608.66;5088495;28;20102;-84
2022/05/17 10:48:34;;;;;;;1.88;1.25;;;;;;;31.56;24.08;99629.63;5086752;28;20119;-85
2022/05/17 10:51:03;;;;;;;1.77;1.33;;;;;;;31.78;24.33;99633.66;5087133;28;20409;-84
2022/05/17 10:53:56;;;;;;;1.45;0.90;;;;;;;31.92;24.22;99616.69;5087984;28;20027;-84
2022/05/17 10:56:37;;;;;;;1.65;1.23;;;;;;;31.92;25.76;99599.47;5087763;28;20032;-84
2022/05/17 10:59:39;;;;;;;2.08;1.48;;;;;;;32.84;24.04;99616.00;5088181;28;20051;-86
2022/05/17 11:02:24;;;;;;;2.17;1.15;;;;;;;33.17;24.24;99608.66;5088486;28;20589;-85
2022/05/17 11:05:39;;;;;;;4.05;1.88;;;;;;;33.44;24.19;99603.03;5099974;28;20486;-85
2022/05/17 11:08:47;;;;;;;3.63;2.75;;;;;;;32.72;24.35;99571.78;5086917;28;20047;-86
2022/05/17 11:11:34;;;;;;;3.67;2.08;;;;;;;32.21;25.23;99600.97;5106998;28;20047;-87
2022/05/17 11:14:07;;;;;;;3.22;1.70;;;;;;;31.89;25.49;99572.53;5107996;28;20039;-85
2022/05/17 11:16:49;;;;;;;2.10;1.42;;;;;;;32.37;24.36;99581.09;5107537;28;20508;-86
2022/05/17 11:19:29;;;;;;;2.05;1.40;;;;;;;32.24;26.66;99574.22;5107753;28;20040;-86
2022/05/17 11:22:30;;;;;;;3.58;2.08;;;;;;;32.42;25.56;99565.06;5106635;28;20035;-86
2022/05/17 11:25:04;;;;;;;2.00;1.60;;;;;;;33.07;23.34;99586.13;5106343;28;20050;-85
2022/05/17 11:28:06;;;;;;;2.75;1.83;;;;;;;33.05;23.78;99577.25;5107617;28;20058;-87
2022/05/17 11:30:43;;;;;;;2.33;1.50;;;;;;;32.62;24.20;99577.38;5108111;28;20028;-86
2022/05/17 11:33:13;;;;;;;2.85;1.80;;;;;;;32.85;23.96;99568.56;5105806;28;20702;-86
2022/05/17 11:36:01;;;;;;;1.98;1.27;;;;;;;32.80;23.67;99563.59;5108092;28;20027;-87
2022/05/17 11:38:33;;;;;;;1.85;1.38;;;;;;;32.71;23.61;99561.88;5106324;28;20126;-86
2022/05/17 11:41:03;;;;;;;2.60;1.60;;;;;;;32.45;23.29;99523.78;5106061;28;20098;-85
2022/05/17 11:43:43;;;;;;;2.85;2.22;;;;;;;32.15;23.78;99530.69;5105981;28;20458;-87
2022/05/17 11:46:47;;;;;;;2.53;1.60;;;;;;;31.86;25.41;99549.16;5106735;28;20075;-87
2022/05/17 11:49:12;;;;;;;1.08;0.93;;;;;;;32.27;24.50;99553.91;5107241;28;20027;-86
2022/05/17 11:51:59;;;;;;;2.38;1.33;;;;;;;32.26;23.92;99528.53;5106575;28;20084;-87
2022/05/17 11:54:45;;;;;;;1.98;1.77;;;;;;;32.06;22.74;99540.72;5106560;28;20031;-86
2022/05/17 11:57:30;;;;;;;2.17;1.30;;;;;;;32.37;23.02;99531.97;5107598;28;20413;-86
2022/05/17 11:59:57;;;;;;;4.65;2.50;;;;;;;31.84;22.09;99510.31;5107023;28;20063;-87